createdAt,value
2019-02-28T00:01:13.402Z,3.20
2019-02-28T00:03:40.178Z,3.10
2019-02-28T00:06:11.590Z,3.00
2019-02-28T00:08:35.841Z,2.90
2019-02-28T00:11:05.112Z,2.90
2019-02-28T00:13:31.509Z,2.80
2019-02-28T00:16:00.209Z,2.70
2019-02-28T00:18:26.981Z,2.70
2019-02-28T00:20:53.873Z,2.70
2019-02-28T00:23:21.968Z,2.70
2019-02-28T00:25:49.464Z,2.70
2019-02-28T00:28:16.452Z,2.60
2019-02-28T00:30:43.344Z,2.60
2019-02-28T00:33:10.106Z,2.60
2019-02-28T00:35:36.881Z,2.50
2019-02-28T00:38:03.856Z,2.50
2019-02-28T00:40:30.737Z,2.50
2019-02-28T00:42:57.609Z,2.40
2019-02-28T00:45:24.561Z,2.40
2019-02-28T00:47:51.321Z,2.30
2019-02-28T00:50:18.184Z,2.30
2019-02-28T00:52:45.065Z,2.30
2019-02-28T00:55:14.503Z,2.40
2019-02-28T00:57:40.981Z,2.50
2019-02-28T01:00:08.916Z,2.50
2019-02-28T01:02:37.088Z,2.60
2019-02-28T01:05:04.803Z,2.60
2019-02-28T01:07:32.840Z,2.70
2019-02-28T01:10:01.499Z,2.60
2019-02-28T01:12:28.395Z,2.50
2019-02-28T01:14:55.181Z,2.40
2019-02-28T01:17:24.015Z,2.20
2019-02-28T01:19:50.639Z,2.10
2019-02-28T01:22:17.421Z,2.00
2019-02-28T01:24:44.298Z,1.90
2019-02-28T01:27:11.105Z,1.80
2019-02-28T01:29:37.903Z,1.70
2019-02-28T01:32:04.794Z,1.60
2019-02-28T01:34:32.198Z,1.60
2019-02-28T01:36:59.870Z,1.50
2019-02-28T01:39:29.972Z,1.50
2019-02-28T01:41:55.354Z,1.40
2019-02-28T01:44:22.217Z,1.40
2019-02-28T01:46:49.393Z,1.40
2019-02-28T01:49:16.377Z,1.40
2019-02-28T01:51:43.148Z,1.50
2019-02-28T01:54:10.029Z,1.40
2019-02-28T01:56:37.783Z,1.50
2019-02-28T01:59:04.980Z,1.50
2019-02-28T02:01:31.756Z,1.50
2019-02-28T02:03:58.517Z,1.70
2019-02-28T02:06:25.721Z,1.90
2019-02-28T02:08:53.356Z,2.00
2019-02-28T02:11:20.130Z,2.20
2019-02-28T02:13:47.009Z,2.30
2019-02-28T02:16:13.786Z,2.40
2019-02-28T02:18:43.330Z,2.40
2019-02-28T02:21:09.441Z,2.40
2019-02-28T02:23:36.217Z,2.30
2019-02-28T02:26:03.284Z,2.30
2019-02-28T02:28:30.066Z,2.30
2019-02-28T02:30:56.848Z,2.30
2019-02-28T02:33:23.737Z,2.30
2019-02-28T02:35:50.511Z,2.30
2019-02-28T02:38:17.411Z,2.30
2019-02-28T02:40:44.282Z,2.30
2019-02-28T02:43:11.181Z,2.30
2019-02-28T02:45:41.517Z,2.20
2019-02-28T02:48:06.885Z,2.20
2019-02-28T02:50:35.920Z,2.10
2019-02-28T02:53:05.397Z,2.10
2019-02-28T02:55:31.492Z,2.00
2019-02-28T02:57:58.358Z,1.90
2019-02-28T03:00:25.237Z,1.90
2019-02-28T03:02:52.232Z,1.80
2019-02-28T03:05:19.237Z,1.70
2019-02-28T03:07:46.130Z,1.70
2019-02-28T03:10:17.290Z,1.60
2019-02-28T03:12:42.339Z,1.40
2019-02-28T03:15:10.361Z,1.30
2019-02-28T03:17:37.154Z,1.30
2019-02-28T03:20:07.409Z,1.20
2019-02-28T03:22:33.427Z,1.10
2019-02-28T03:25:00.391Z,1.10
2019-02-28T03:27:27.301Z,1.00
2019-02-28T03:29:54.081Z,1.00
2019-02-28T03:32:20.881Z,1.10
2019-02-28T03:34:54.632Z,1.10
2019-02-28T03:37:16.459Z,1.20
2019-02-28T03:39:43.445Z,1.30
2019-02-28T03:42:10.649Z,1.50
2019-02-28T03:44:37.634Z,1.60
2019-02-28T03:47:04.611Z,1.80
2019-02-28T03:49:31.514Z,1.90
2019-02-28T03:52:05.563Z,2.00
2019-02-28T03:54:28.829Z,2.00
2019-02-28T03:56:56.078Z,2.10
2019-02-28T03:59:23.074Z,2.10
2019-02-28T04:01:50.044Z,2.10
2019-02-28T04:04:17.046Z,2.00
2019-02-28T04:06:44.035Z,2.00
2019-02-28T04:09:10.927Z,1.90
2019-02-28T04:11:37.797Z,1.80
2019-02-28T04:14:04.674Z,1.80
2019-02-28T04:16:31.585Z,1.90
2019-02-28T04:18:58.373Z,1.90
2019-02-28T04:21:25.251Z,1.90
2019-02-28T04:23:52.037Z,1.80
2019-02-28T04:26:18.925Z,1.80
2019-02-28T04:28:45.687Z,1.80
2019-02-28T04:31:18.892Z,1.80
2019-02-28T04:33:41.157Z,1.80
2019-02-28T04:36:08.073Z,1.70
2019-02-28T04:38:34.836Z,1.80
2019-02-28T04:41:01.729Z,1.70
2019-02-28T04:43:28.492Z,1.60
2019-02-28T04:45:57.631Z,1.50
2019-02-28T04:48:24.058Z,1.40
2019-02-28T04:50:50.968Z,1.30
2019-02-28T04:53:18.862Z,1.20
2019-02-28T04:55:46.537Z,1.20
2019-02-28T04:58:13.409Z,1.10
2019-02-28T05:00:40.319Z,1.00
2019-02-28T05:03:07.198Z,0.90
2019-02-28T05:05:33.968Z,0.90
2019-02-28T05:08:04.676Z,0.90
2019-02-28T05:10:29.561Z,0.90
2019-02-28T05:12:56.345Z,0.80
2019-02-28T05:15:23.372Z,0.80
2019-02-28T05:17:52.919Z,0.70
2019-02-28T05:20:19.045Z,0.70
2019-02-28T05:22:45.921Z,0.60
2019-02-28T05:25:17.546Z,0.60
2019-02-28T05:27:41.572Z,0.60
2019-02-28T05:30:10.220Z,0.60
2019-02-28T05:32:36.993Z,0.60
2019-02-28T05:35:04.397Z,0.60
2019-02-28T05:37:31.183Z,0.50
2019-02-28T05:39:57.961Z,0.50
2019-02-28T05:42:24.836Z,0.50
2019-02-28T05:44:51.641Z,0.40
2019-02-28T05:47:18.432Z,0.40
2019-02-28T05:49:45.206Z,0.30
2019-02-28T05:52:12.104Z,0.20
2019-02-28T05:54:38.893Z,0.20
2019-02-28T05:57:08.235Z,0.20
2019-02-28T05:59:34.340Z,0.20
2019-02-28T06:02:01.221Z,0.10
2019-02-28T06:04:28.017Z,0.10
2019-02-28T06:06:55.586Z,0.10
2019-02-28T06:09:22.709Z,0.10
2019-02-28T06:11:49.641Z,0.10
2019-02-28T06:14:16.420Z,0.10
2019-02-28T06:16:46.166Z,0.10
2019-02-28T06:19:12.084Z,0.20
2019-02-28T06:21:38.977Z,0.20
2019-02-28T06:24:05.945Z,0.20
2019-02-28T06:26:33.019Z,0.20
2019-02-28T06:29:04.618Z,0.30
2019-02-28T06:31:28.685Z,0.40
2019-02-28T06:33:55.545Z,0.60
2019-02-28T06:36:22.330Z,1.10
2019-02-28T06:38:51.498Z,1.50
2019-02-28T06:41:17.789Z,1.90
2019-02-28T06:43:44.570Z,2.30
2019-02-28T06:46:11.564Z,2.80
2019-02-28T06:48:38.465Z,3.20
2019-02-28T06:51:05.243Z,3.70
2019-02-28T06:53:36.197Z,4.00
2019-02-28T06:56:03.346Z,4.50
2019-02-28T06:58:30.515Z,4.80
2019-02-28T07:00:58.790Z,5.10
2019-02-28T07:03:25.559Z,5.20
2019-02-28T07:05:52.307Z,5.50
2019-02-28T07:08:20.637Z,5.80
2019-02-28T07:10:48.409Z,6.10
2019-02-28T07:13:16.317Z,6.20
2019-02-28T07:15:43.180Z,6.70
2019-02-28T07:18:09.950Z,7.20
2019-02-28T07:20:37.008Z,7.60
2019-02-28T07:23:04.027Z,8.00
2019-02-28T07:25:33.049Z,8.40
2019-02-28T07:28:01.519Z,8.80
2019-02-28T07:30:28.704Z,9.30
2019-02-28T07:32:55.581Z,9.80
2019-02-28T07:35:22.357Z,10.50
2019-02-28T07:37:53.398Z,10.90
2019-02-28T07:40:18.386Z,11.50
2019-02-28T07:42:45.356Z,11.90
2019-02-28T07:45:12.417Z,12.40
2019-02-28T07:47:39.309Z,12.70
2019-02-28T07:50:07.662Z,13.10
2019-02-28T07:52:35.680Z,13.60
2019-02-28T07:55:03.134Z,14.00
2019-02-28T07:57:29.917Z,14.50
2019-02-28T07:59:56.678Z,15.00
2019-02-28T08:02:23.457Z,15.40
2019-02-28T08:04:50.679Z,15.70
2019-02-28T08:07:19.141Z,16.20
2019-02-28T08:09:46.027Z,16.90
2019-02-28T08:12:12.898Z,17.60
2019-02-28T08:14:39.794Z,18.30
2019-02-28T08:17:09.086Z,18.90
2019-02-28T08:19:35.688Z,19.50
2019-02-28T08:22:02.860Z,20.10
2019-02-28T08:24:29.819Z,20.60
2019-02-28T08:26:56.690Z,21.00
2019-02-28T08:29:23.584Z,21.50
2019-02-28T08:31:50.353Z,21.70
2019-02-28T08:34:17.142Z,22.40
2019-02-28T08:36:46.908Z,22.70
2019-02-28T08:39:16.271Z,23.00
2019-02-28T08:41:43.449Z,23.40
2019-02-28T08:44:10.421Z,23.90
2019-02-28T08:46:37.282Z,24.20
2019-02-28T08:49:07.201Z,24.70
2019-02-28T08:51:33.431Z,24.70
2019-02-28T08:54:00.317Z,25.00
2019-02-28T08:56:27.297Z,25.20
2019-02-28T08:58:54.077Z,25.60
2019-02-28T09:01:20.937Z,26.20
2019-02-28T09:03:47.727Z,26.00
2019-02-28T09:06:14.497Z,26.10
2019-02-28T09:08:41.378Z,26.50
2019-02-28T09:11:08.370Z,26.50
2019-02-28T09:13:35.256Z,26.90
2019-02-28T09:16:04.867Z,27.00
2019-02-28T09:18:31.014Z,27.00
2019-02-28T09:20:57.896Z,27.40
2019-02-28T09:23:24.878Z,26.20
2019-02-28T09:25:53.347Z,25.00
2019-02-28T09:28:20.880Z,24.00
2019-02-28T09:30:47.845Z,23.70
2019-02-28T09:33:14.725Z,23.80
2019-02-28T09:35:45.290Z,23.80
2019-02-28T09:38:13.323Z,23.30
2019-02-28T09:40:41.143Z,23.50
2019-02-28T09:43:08.067Z,22.70
2019-02-28T09:45:34.951Z,21.60
2019-02-28T09:48:02.444Z,21.40
2019-02-28T09:50:29.623Z,21.40
2019-02-28T09:52:56.503Z,21.20
2019-02-28T09:55:23.380Z,21.40
2019-02-28T09:57:53.667Z,21.00
2019-02-28T10:00:19.276Z,21.50
2019-02-28T10:02:46.251Z,21.90
2019-02-28T10:05:13.274Z,22.40
2019-02-28T10:07:40.261Z,21.80
2019-02-28T10:10:10.068Z,22.30
2019-02-28T10:12:39.421Z,21.80
2019-02-28T10:15:07.860Z,22.20
2019-02-28T10:17:34.729Z,22.90
2019-02-28T10:20:02.049Z,22.30
2019-02-28T10:22:28.809Z,22.10
2019-02-28T10:24:55.777Z,22.00
2019-02-28T10:27:23.296Z,22.10
2019-02-28T10:29:51.429Z,22.10
2019-02-28T10:32:18.190Z,22.30
2019-02-28T10:34:45.083Z,22.50
2019-02-28T10:37:12.061Z,22.40
2019-02-28T10:39:40.286Z,21.80
2019-02-28T10:42:07.625Z,21.80
2019-02-28T10:44:34.602Z,22.40
2019-02-28T10:47:01.501Z,22.50
2019-02-28T10:49:28.265Z,22.30
2019-02-28T10:51:55.270Z,22.60
2019-02-28T10:54:22.153Z,23.70
2019-02-28T10:56:49.159Z,23.90
2019-02-28T10:59:16.029Z,24.10
2019-02-28T11:01:43.314Z,23.40
2019-02-28T11:04:10.329Z,23.10
2019-02-28T11:06:38.601Z,22.50
2019-02-28T11:09:05.763Z,21.90
2019-02-28T11:11:32.671Z,21.50
2019-02-28T11:13:59.546Z,21.30
2019-02-28T11:16:26.436Z,21.00
2019-02-28T11:18:53.281Z,21.30
2019-02-28T11:21:20.765Z,22.30
2019-02-28T11:23:50.120Z,23.30
2019-02-28T11:26:16.605Z,24.10
2019-02-28T11:28:43.470Z,25.10
2019-02-28T11:31:11.187Z,24.80
2019-02-28T11:33:39.670Z,24.60
2019-02-28T11:36:07.538Z,24.40
2019-02-28T11:38:34.668Z,23.70
2019-02-28T11:41:01.547Z,23.10
2019-02-28T11:43:28.510Z,22.60
2019-02-28T11:45:56.551Z,22.10
2019-02-28T11:48:24.428Z,22.00
2019-02-28T11:50:51.226Z,21.80
2019-02-28T11:53:19.146Z,21.90
2019-02-28T11:55:46.253Z,21.70
2019-02-28T11:58:16.288Z,21.20
2019-02-28T12:00:42.036Z,20.80
2019-02-28T12:03:09.014Z,20.30
2019-02-28T12:05:35.897Z,19.90
2019-02-28T12:08:03.083Z,19.90
2019-02-28T12:10:30.060Z,21.20
2019-02-28T12:12:56.968Z,21.90
2019-02-28T12:15:24.959Z,21.70
2019-02-28T12:17:51.966Z,21.90
2019-02-28T12:20:18.824Z,22.90
2019-02-28T12:22:49.348Z,23.50
2019-02-28T12:25:16.149Z,24.30
2019-02-28T12:27:43.041Z,24.80
2019-02-28T12:30:15.384Z,24.90
2019-02-28T12:32:43.367Z,25.10
2019-02-28T12:35:11.204Z,25.30
2019-02-28T12:37:38.092Z,25.00
2019-02-28T12:40:07.418Z,23.80
2019-02-28T12:42:35.374Z,23.00
2019-02-28T12:45:03.177Z,22.90
2019-02-28T12:47:33.754Z,22.80
2019-02-28T12:50:00.767Z,22.50
2019-02-28T12:52:27.850Z,21.90
2019-02-28T12:54:54.725Z,21.70
2019-02-28T12:57:22.327Z,22.10
2019-02-28T12:59:50.011Z,22.90
2019-02-28T13:02:16.920Z,23.40
2019-02-28T13:04:43.809Z,23.60
2019-02-28T13:07:10.710Z,23.10
2019-02-28T13:09:37.761Z,22.90
2019-02-28T13:12:08.107Z,23.40
2019-02-28T13:14:36.883Z,23.20
2019-02-28T13:17:02.459Z,23.10
2019-02-28T13:19:29.429Z,23.70
2019-02-28T13:21:56.425Z,24.00
2019-02-28T13:24:23.389Z,25.40
2019-02-28T13:26:50.470Z,25.90
2019-02-28T13:29:17.336Z,25.70
2019-02-28T13:31:44.306Z,26.30
2019-02-28T13:34:11.293Z,25.70
2019-02-28T13:36:38.074Z,25.00
2019-02-28T13:39:07.115Z,25.00
2019-02-28T13:41:33.889Z,25.70
2019-02-28T13:44:00.782Z,25.70
2019-02-28T13:46:32.486Z,25.20
2019-02-28T13:48:56.445Z,24.10
2019-02-28T13:51:23.334Z,23.80
2019-02-28T13:53:50.235Z,23.80
2019-02-28T13:56:18.073Z,24.30
2019-02-28T13:58:45.114Z,24.00
2019-02-28T14:01:12.085Z,24.00
2019-02-28T14:03:42.267Z,23.00
2019-02-28T14:06:07.656Z,22.40
2019-02-28T14:08:34.640Z,22.10
2019-02-28T14:11:01.522Z,21.70
2019-02-28T14:13:30.094Z,21.70
2019-02-28T14:15:57.185Z,21.90
2019-02-28T14:18:24.066Z,22.60
2019-02-28T14:20:50.942Z,22.50
2019-02-28T14:23:20.870Z,22.40
2019-02-28T14:25:46.714Z,22.50
2019-02-28T14:28:13.562Z,22.90
2019-02-28T14:30:40.349Z,22.70
2019-02-28T14:33:07.760Z,22.20
2019-02-28T14:35:37.624Z,22.30
2019-02-28T14:38:03.913Z,22.50
2019-02-28T14:40:30.878Z,22.60
2019-02-28T14:42:57.861Z,22.30
2019-02-28T14:45:24.850Z,22.70
2019-02-28T14:47:56.948Z,22.60
2019-02-28T14:50:20.855Z,22.50
2019-02-28T14:52:48.450Z,22.20
2019-02-28T14:55:15.343Z,22.20
2019-02-28T14:57:43.545Z,22.20
2019-02-28T15:00:13.349Z,21.80
2019-02-28T15:02:40.335Z,21.80
2019-02-28T15:05:08.794Z,21.40
2019-02-28T15:07:38.683Z,21.60
2019-02-28T15:10:06.798Z,21.40
2019-02-28T15:12:33.677Z,20.90
2019-02-28T15:15:00.454Z,20.60
2019-02-28T15:17:27.358Z,20.90
2019-02-28T15:19:56.982Z,20.80
2019-02-28T15:22:23.020Z,20.50
2019-02-28T15:24:49.809Z,20.60
2019-02-28T15:27:16.581Z,20.50
2019-02-28T15:29:43.370Z,20.40
2019-02-28T15:32:10.137Z,20.40
2019-02-28T15:34:37.514Z,20.10
2019-02-28T15:37:05.813Z,19.90
2019-02-28T15:39:32.690Z,19.80
2019-02-28T15:41:59.465Z,19.70
2019-02-28T15:44:29.288Z,19.30
2019-02-28T15:46:55.759Z,19.60
2019-02-28T15:49:22.698Z,19.80
2019-02-28T15:51:49.682Z,19.50
2019-02-28T15:54:16.489Z,19.30
2019-02-28T15:56:43.479Z,18.50
2019-02-28T15:59:11.638Z,18.20
2019-02-28T16:01:39.346Z,17.60
2019-02-28T16:04:06.363Z,17.00
2019-02-28T16:06:33.246Z,16.50
2019-02-28T16:09:00.038Z,16.30
2019-02-28T16:11:27.009Z,16.20
2019-02-28T16:13:53.901Z,16.20
2019-02-28T16:16:21.456Z,16.30
2019-02-28T16:18:49.695Z,16.30
2019-02-28T16:21:16.593Z,16.20
2019-02-28T16:23:43.674Z,16.00
2019-02-28T16:26:10.551Z,15.90
2019-02-28T16:28:39.457Z,15.70
2019-02-28T16:31:07.547Z,15.40
2019-02-28T16:33:34.681Z,15.30
2019-02-28T16:36:01.461Z,15.10
2019-02-28T16:38:28.361Z,14.90
2019-02-28T16:40:57.677Z,14.70
2019-02-28T16:43:24.551Z,14.60
2019-02-28T16:45:51.593Z,14.50
2019-02-28T16:48:18.549Z,14.40
2019-02-28T16:50:45.557Z,14.40
2019-02-28T16:53:16.184Z,14.20
2019-02-28T16:55:41.393Z,14.10
2019-02-28T16:58:08.496Z,14.00
2019-02-28T17:00:35.492Z,13.90
2019-02-28T17:03:04.157Z,13.80
2019-02-28T17:05:32.162Z,13.70
2019-02-28T17:07:59.061Z,13.60
2019-02-28T17:10:31.066Z,13.50
2019-02-28T17:13:17.619Z,13.40
2019-02-28T17:16:02.698Z,13.30
2019-02-28T17:18:30.664Z,13.10
2019-02-28T17:20:57.543Z,13.00
2019-02-28T17:23:24.530Z,12.90
2019-02-28T17:25:53.466Z,12.80
2019-02-28T17:28:39.779Z,12.80
2019-02-28T17:31:29.128Z,12.70
2019-02-28T17:33:56.101Z,12.60
2019-02-28T17:36:23.007Z,12.50
2019-02-28T17:38:50.070Z,12.40
2019-02-28T17:41:16.962Z,12.30
2019-02-28T17:44:20.152Z,12.30
2019-02-28T17:46:49.273Z,12.20
2019-02-28T17:49:56.490Z,12.20
2019-02-28T17:52:33.656Z,12.10
2019-02-28T17:55:27.039Z,12.00
2019-02-28T17:58:08.910Z,11.80
2019-02-28T18:01:12.136Z,11.80
2019-02-28T18:04:33.045Z,11.70
2019-02-28T18:07:45.689Z,11.60
2019-02-28T18:10:55.759Z,11.60
2019-02-28T18:13:56.114Z,11.60
2019-02-28T18:17:07.853Z,11.60
2019-02-28T18:20:12.365Z,11.50
2019-02-28T18:23:03.120Z,11.40
2019-02-28T18:25:52.024Z,11.30
2019-02-28T18:28:49.113Z,11.20
2019-02-28T18:31:19.261Z,11.20
2019-02-28T18:34:09.050Z,11.20
2019-02-28T18:36:35.918Z,11.10
2019-02-28T18:39:08.174Z,11.10
2019-02-28T18:41:34.072Z,11.00
2019-02-28T18:44:03.671Z,11.00
2019-02-28T18:46:30.778Z,11.00
2019-02-28T18:48:57.905Z,10.90
2019-02-28T18:51:24.770Z,10.90
2019-02-28T18:53:51.701Z,10.90
2019-02-28T18:56:18.686Z,10.90
2019-02-28T18:58:45.460Z,10.90
2019-02-28T19:01:12.345Z,10.80
2019-02-28T19:03:39.205Z,10.80
2019-02-28T19:06:06.090Z,10.70
2019-02-28T19:08:32.950Z,10.70
2019-02-28T19:10:59.937Z,10.70
2019-02-28T19:13:26.707Z,10.70
2019-02-28T19:15:53.612Z,10.70
2019-02-28T19:18:20.542Z,10.60
2019-02-28T19:20:47.523Z,10.60
2019-02-28T19:23:14.496Z,10.60
2019-02-28T19:25:41.454Z,10.60
2019-02-28T19:28:08.341Z,10.60
2019-02-28T19:30:35.333Z,10.60
2019-02-28T19:33:02.302Z,10.60
2019-02-28T19:35:29.177Z,10.50
2019-02-28T19:37:56.071Z,10.50
2019-02-28T19:40:22.846Z,10.50
2019-02-28T19:42:49.619Z,10.50
2019-02-28T19:45:16.421Z,10.50
2019-02-28T19:47:43.209Z,10.50
2019-02-28T19:50:10.185Z,10.50
2019-02-28T19:52:37.171Z,10.40
2019-02-28T19:55:04.817Z,10.30
2019-02-28T19:57:31.610Z,10.30
2019-02-28T19:59:58.408Z,10.20
2019-02-28T20:02:25.500Z,10.10
2019-02-28T20:04:52.372Z,10.10
2019-02-28T20:07:19.170Z,10.10
2019-02-28T20:09:46.036Z,10.10
2019-02-28T20:12:12.913Z,10.00
2019-02-28T20:14:39.780Z,10.00
2019-02-28T20:17:06.578Z,9.90
2019-02-28T20:19:33.446Z,9.80
2019-02-28T20:22:00.430Z,9.80
2019-02-28T20:24:27.443Z,9.90
2019-02-28T20:26:54.314Z,9.90
2019-02-28T20:29:21.087Z,9.90
2019-02-28T20:31:48.069Z,10.00
2019-02-28T20:34:15.055Z,10.00
2019-02-28T20:36:42.036Z,10.10
2019-02-28T20:39:10.610Z,10.00
2019-02-28T20:41:37.584Z,10.10
2019-02-28T20:44:04.489Z,10.10
2019-02-28T20:46:31.445Z,10.10
2019-02-28T20:48:58.214Z,10.10
2019-02-28T20:51:25.083Z,10.10
2019-02-28T20:53:51.869Z,10.10
2019-02-28T20:56:18.760Z,10.10
2019-02-28T20:58:45.646Z,10.20
2019-02-28T21:01:12.537Z,10.20
2019-02-28T21:03:39.338Z,10.20
2019-02-28T21:06:06.129Z,10.20
2019-02-28T21:08:33.009Z,10.20
2019-02-28T21:10:59.980Z,10.10
2019-02-28T21:13:26.976Z,10.10
2019-02-28T21:15:53.838Z,10.10
2019-02-28T21:18:20.613Z,10.20
2019-02-28T21:20:47.517Z,10.20
2019-02-28T21:23:14.285Z,10.20
2019-02-28T21:25:41.167Z,10.20
2019-02-28T21:28:08.148Z,10.20
2019-02-28T21:30:35.149Z,10.20
2019-02-28T21:33:02.142Z,10.20
2019-02-28T21:35:29.203Z,10.10
2019-02-28T21:37:56.181Z,10.20
2019-02-28T21:40:23.482Z,10.20
2019-02-28T21:42:50.472Z,10.10
2019-02-28T21:45:17.574Z,10.10
2019-02-28T21:47:44.580Z,10.10
2019-02-28T21:50:12.219Z,10.10
2019-02-28T21:52:39.219Z,10.10
2019-02-28T21:55:07.587Z,10.10
2019-02-28T21:57:34.718Z,10.10
2019-02-28T22:00:01.660Z,10.10
2019-02-28T22:02:28.629Z,10.10
2019-02-28T22:04:55.442Z,10.10
2019-02-28T22:07:22.252Z,10.00
2019-02-28T22:09:49.151Z,10.00
2019-02-28T22:12:16.154Z,9.90
2019-02-28T22:14:42.960Z,9.90
2019-02-28T22:17:09.953Z,9.80
2019-02-28T22:19:36.845Z,9.80
2019-02-28T22:22:03.714Z,9.80
2019-02-28T22:24:30.514Z,9.80
2019-02-28T22:26:57.385Z,9.80
2019-02-28T22:29:24.180Z,9.80
2019-02-28T22:32:24.444Z,9.80
2019-02-28T22:35:19.275Z,9.70
2019-02-28T22:37:46.199Z,9.70
2019-02-28T22:40:13.099Z,9.60
2019-02-28T22:42:40.057Z,9.50
2019-02-28T22:45:07.156Z,9.40
2019-02-28T22:47:34.065Z,9.30
2019-02-28T22:50:00.995Z,9.30
2019-02-28T22:52:27.755Z,9.20
2019-02-28T22:54:54.663Z,9.20
2019-02-28T22:57:21.684Z,9.10
2019-02-28T22:59:48.578Z,9.00
2019-02-28T23:02:15.566Z,9.00
2019-02-28T23:04:42.568Z,9.00
2019-02-28T23:07:09.577Z,8.90
2019-02-28T23:09:36.482Z,8.80
2019-02-28T23:12:03.472Z,8.80
2019-02-28T23:14:30.362Z,8.80
2019-02-28T23:16:57.162Z,8.80
2019-02-28T23:19:24.040Z,8.80
2019-02-28T23:21:50.818Z,8.60
2019-02-28T23:24:17.599Z,8.50
2019-02-28T23:27:13.041Z,8.40
2019-02-28T23:30:18.038Z,8.30
2019-02-28T23:32:50.005Z,8.20
2019-02-28T23:35:20.621Z,8.20
2019-02-28T23:37:47.480Z,8.10
2019-02-28T23:40:14.411Z,8.10
2019-02-28T23:42:41.434Z,8.10
2019-02-28T23:45:08.419Z,8.00
2019-02-28T23:47:35.266Z,7.90
2019-02-28T23:50:02.649Z,7.90
2019-02-28T23:52:29.624Z,7.90
2019-02-28T23:54:56.418Z,7.80
2019-02-28T23:57:23.211Z,7.80
2019-02-28T23:59:50.020Z,7.70
